For water level readings from Victoria harbour, visit our Tides page.

DISCLAIMER: Although GVHA takes care to produce accurate readings from Ogden Point, the weather information on this site is raw data fed directly from sensors. It does not go through the same quality control processes used by professional weather services, and should not be relied on as a sole source of weather information for Victoria harbour.

In-depth weather values from Victoria Harbour can be found on the Environment Canada website.

Location: Ogden Point Breakwater

Current time: Aug 22, 2019 1:45 AM GMT | Aug 21, 2019 6:45 PM

Last Hour Last 3 Hours Last 6 Hours Last 12 Hours
Time Peak Wind Speed Avg Speed Avg Direction Avg Air Temp Avg Dew Point Avg Humidity
Aug 21, 2019 06:40 PM 15.9 knots 13.7 knots 181° True 15.7° C / 61.4° F 10.3° C / 50.6° F 70.5%
Aug 21, 2019 06:30 PM 15.6 knots 13.2 knots 185° True 15.5° C / 61° F 10.3° C / 50.6° F 71.5%
Aug 21, 2019 06:20 PM 18.3 knots 16.7 knots 194° True 15.8° C / 61.6° F 10.3° C / 50.6° F 69.4%
Aug 21, 2019 06:10 PM 17.4 knots 14 knots 204° True 15.7° C / 61.4° F 10.5° C / 51° F 71.5%
Aug 21, 2019 06:00 PM 18 knots 13.8 knots 204° True 16° C / 62° F 10.9° C / 51.8° F 71.5%
Aug 21, 2019 05:50 PM 22.9 knots 20.3 knots 198° True 16.4° C / 62.8° F 10.8° C / 51.6° F 69.7%
Aug 21, 2019 05:40 PM 23.2 knots 21.1 knots 194° True 16.1° C / 62.2° F 11.3° C / 52.6° F 72.9%
Aug 21, 2019 05:30 PM 21.1 knots 19.1 knots 187° True 15.5° C / 61° F 11.6° C / 53.2° F 77.5%
Aug 21, 2019 05:20 PM 18.5 knots 16.5 knots 181° True 15.2° C / 60.4° F 11.8° C / 53.6° F 80%
Aug 21, 2019 05:10 PM 16.6 knots 15.3 knots 175° True 14.4° C / 58.8° F 11.7° C / 53.4° F 84%
Aug 21, 2019 05:00 PM 18.8 knots 16.9 knots 171° True 13.1° C / 56.2° F 12.1° C / 54.2° F 93.4%
Aug 21, 2019 04:50 PM 19 knots 17.1 knots 168° True 12.5° C / 55° F 12° C / 54° F 96.7%
Aug 21, 2019 04:40 PM 21.1 knots 18.2 knots 171° True 12.4° C / 54.8° F 12° C / 54° F 97.5%
Aug 21, 2019 04:30 PM 22.7 knots 19.7 knots 171° True 12.5° C / 55° F 12.1° C / 54.2° F 97.7%
Aug 21, 2019 04:20 PM 20.4 knots 18.7 knots 168° True 12.5° C / 55° F 12.2° C / 54.4° F 97.9%
Aug 21, 2019 04:10 PM 21.3 knots 19.7 knots 172° True 12.6° C / 55.2° F 12.3° C / 54.6° F 98.1%
Aug 21, 2019 04:00 PM 21 knots 18.8 knots 171° True 12.8° C / 55.6° F 12.5° C / 55° F 98.1%
Aug 21, 2019 03:50 PM 19.9 knots 17 knots 165° True 12.9° C / 55.8° F 12.6° C / 55.2° F 98%
Aug 21, 2019 03:40 PM 16.7 knots 15 knots 165° True 13° C / 56° F 12.7° C / 55.4° F 97.9%
Aug 21, 2019 03:30 PM 15.3 knots 13.1 knots 160° True 12.9° C / 55.8° F 12.6° C / 55.2° F 97.7%
Aug 21, 2019 03:20 PM 12 knots 9.3 knots 145° True 12.7° C / 55.4° F 12.4° C / 54.8° F 97.7%
Aug 21, 2019 03:10 PM 9.2 knots 7.2 knots 136° True 12.5° C / 55° F 12.2° C / 54.4° F 97.6%
Aug 21, 2019 03:00 PM 8.3 knots 6.8 knots 136° True 12.6° C / 55.2° F 12.2° C / 54.4° F 97.5%
Aug 21, 2019 02:50 PM 10.7 knots 7.9 knots 148° True 12.6° C / 55.2° F 12.3° C / 54.6° F 97.5%
Aug 21, 2019 02:40 PM 11.9 knots 7.4 knots 161° True 12.3° C / 54.6° F 11.9° C / 53.8° F 97.4%
Aug 21, 2019 02:30 PM 5.3 knots 4.1 knots 121° True 12.1° C / 54.2° F 11.7° C / 53.4° F 97.3%
Aug 21, 2019 02:20 PM 5.7 knots 3.7 knots 98° True 12.3° C / 54.6° F 11.8° C / 53.6° F 97.3%
Aug 21, 2019 02:10 PM 4.6 knots 2.8 knots 120° True 12.2° C / 54.4° F 11.7° C / 53.4° F 97.2%
Aug 21, 2019 02:00 PM 6.5 knots 4.8 knots 154° True 12.3° C / 54.6° F 11.9° C / 53.8° F 96.9%
Aug 21, 2019 01:50 PM 9.7 knots 7.5 knots 157° True 12.9° C / 55.8° F 12.3° C / 54.6° F 96.4%
Aug 21, 2019 01:30 PM 7.9 knots 4.4 knots 166° True 14.9° C / 59.8° F 14.1° C / 58.2° F 95.1%
Aug 21, 2019 01:20 PM 3.1 knots 2.4 knots 161° True 15.1° C / 60.2° F 14.2° C / 58.4° F 94.7%
Aug 21, 2019 01:10 PM 2.7 knots 1.3 knots 190° True 15.5° C / 61° F 14.6° C / 59.2° F 94.7%
Aug 21, 2019 01:00 PM 3.3 knots 2.1 knots 13° True 15.4° C / 60.8° F 14.6° C / 59.2° F 95%
Aug 21, 2019 12:50 PM 5 knots 3.8 knots 17° True 15.3° C / 60.6° F 14.5° C / 59° F 95.3%
Aug 21, 2019 12:40 PM 4.6 knots 3.5 knots 14° True 15.3° C / 60.6° F 14.6° C / 59.2° F 95.5%
Aug 21, 2019 12:30 PM 5.1 knots 3.7 knots 6° True 15.2° C / 60.4° F 14.5° C / 59° F 95.4%
Aug 21, 2019 12:20 PM 4.2 knots 3.1 knots 14° True 15.1° C / 60.2° F 14.4° C / 58.8° F 95.3%
Aug 21, 2019 12:10 PM 4.6 knots 3.8 knots 10° True 15° C / 60° F 14.3° C / 58.6° F 95.2%
Aug 21, 2019 12:00 PM 6.2 knots 5.1 knots 9° True 14.9° C / 59.8° F 14.1° C / 58.2° F 95%
Aug 21, 2019 11:50 AM 5.7 knots 5 knots 356° True 14.9° C / 59.8° F 14° C / 58° F 94.6%
Aug 21, 2019 11:40 AM 6.8 knots 5.8 knots 2° True 14.8° C / 59.6° F 13.9° C / 57.8° F 94.1%
Aug 21, 2019 11:30 AM 7.5 knots 6.4 knots 8° True 14.8° C / 59.6° F 13.8° C / 57.6° F 93.6%
Aug 21, 2019 11:20 AM 7.4 knots 6.2 knots 10° True 14.9° C / 59.8° F 13.8° C / 57.6° F 93%
Aug 21, 2019 11:10 AM 7.2 knots 5.4 knots 13° True 15.1° C / 60.2° F 13.8° C / 57.6° F 92.2%
Aug 21, 2019 10:50 AM 5.2 knots 4.1 knots 9° True 15.1° C / 60.2° F 13.4° C / 56.8° F 89.7%
Aug 21, 2019 10:40 AM 6.3 knots 5.1 knots 9° True 15.2° C / 60.4° F 13.3° C / 56.6° F 88.7%
Aug 21, 2019 10:30 AM 4.7 knots 3.7 knots 4° True 15.2° C / 60.4° F 13.3° C / 56.6° F 88.2%
Aug 21, 2019 10:20 AM 7.4 knots 5.2 knots 14° True 15.2° C / 60.4° F 13.2° C / 56.4° F 87.6%
Aug 21, 2019 10:10 AM 7.6 knots 5.5 knots 15° True 15.1° C / 60.2° F 13° C / 56° F 87%
Aug 21, 2019 10:00 AM 5.9 knots 4.8 knots 9° True 15° C / 60° F 12.9° C / 55.8° F 87.3%
Aug 21, 2019 09:50 AM 7.3 knots 5.4 knots 18° True 14.8° C / 59.6° F 12.9° C / 55.8° F 88.1%
Aug 21, 2019 09:40 AM 6.4 knots 3.9 knots 19° True 14.4° C / 58.8° F 12.8° C / 55.6° F 90.1%
Aug 21, 2019 09:30 AM 2.5 knots 1.8 knots 43° True 13.8° C / 57.6° F 12.4° C / 54.8° F 91.3%
Aug 21, 2019 09:20 AM 3.3 knots 2.1 knots 75° True 13.4° C / 56.8° F 12° C / 54° F 91.2%
Aug 21, 2019 09:10 AM 5.8 knots 3.3 knots 88° True 14° C / 58° F 12.2° C / 54.4° F 89%
Aug 21, 2019 09:00 AM 3.6 knots 2.9 knots 342° True 14.3° C / 58.6° F 12.5° C / 55° F 89.3%
Aug 21, 2019 08:50 AM 4 knots 1.7 knots 342° True 14.1° C / 58.2° F 12.3° C / 54.6° F 88.8%
Aug 21, 2019 08:40 AM 3.3 knots 1.7 knots 354° True 14.3° C / 58.6° F 12.4° C / 54.8° F 88.1%
Aug 21, 2019 08:30 AM 3.9 knots 2.9 knots 14° True 14.3° C / 58.6° F 12.4° C / 54.8° F 87.8%
Aug 21, 2019 08:20 AM 3.3 knots 2 knots 27° True 14.3° C / 58.6° F 12.3° C / 54.6° F 87.6%
Aug 21, 2019 08:00 AM 6.5 knots 3.8 knots 43° True 14.4° C / 58.8° F 12.4° C / 54.8° F 87.6%
Aug 21, 2019 07:50 AM 5.1 knots 3.5 knots 53° True 14.4° C / 58.8° F 12.6° C / 55.2° F 88.9%
Aug 21, 2019 07:40 AM 4.1 knots 3 knots 21° True 14.6° C / 59.2° F 13° C / 56° F 90.3%
Aug 21, 2019 07:20 AM 4.6 knots 3.3 knots 12° True 14.6° C / 59.2° F 12.7° C / 55.4° F 88.6%
Aug 21, 2019 07:10 AM 5.8 knots 4.2 knots 19° True 14.5° C / 59° F 12.7° C / 55.4° F 88.6%
Aug 21, 2019 07:00 AM 7.7 knots 5.6 knots 11° True 14.6° C / 59.2° F 12.8° C / 55.6° F 89.2%
Aug 21, 2019 06:50 AM 8.8 knots 6.2 knots 14° True 14.6° C / 59.2° F 12.9° C / 55.8° F 89.2%